createdAt,value
2018-02-18T00:00:16.974Z,26.40
2018-02-18T00:02:48.609Z,26.60
2018-02-18T00:05:19.411Z,26.50
2018-02-18T00:07:50.168Z,26.50
2018-02-18T00:10:20.735Z,26.30
2018-02-18T00:12:52.730Z,26.40
2018-02-18T00:15:23.873Z,26.40
2018-02-18T00:17:54.412Z,26.60
2018-02-18T00:20:25.526Z,26.60
2018-02-18T00:22:56.018Z,27.10
2018-02-18T00:25:27.767Z,27.10
2018-02-18T00:27:58.771Z,27.00
2018-02-18T00:30:29.622Z,27.20
2018-02-18T00:33:00.377Z,27.50
2018-02-18T00:35:31.244Z,27.40
2018-02-18T00:38:02.666Z,27.60
2018-02-18T00:40:33.643Z,27.60
2018-02-18T00:43:05.260Z,28.10
2018-02-18T00:45:36.102Z,28.10
2018-02-18T00:48:06.899Z,28.20
2018-02-18T00:50:37.944Z,28.50
2018-02-18T00:53:08.441Z,28.30
2018-02-18T00:55:38.947Z,28.20
2018-02-18T00:58:09.708Z,28.50
2018-02-18T01:00:40.879Z,28.30
2018-02-18T01:03:11.304Z,28.30
2018-02-18T01:05:42.131Z,28.20
2018-02-18T01:08:12.903Z,28.30
2018-02-18T01:10:43.860Z,28.10
2018-02-18T01:13:14.714Z,28.40
2018-02-18T01:15:46.352Z,28.70
2018-02-18T01:18:17.087Z,28.70
2018-02-18T01:20:48.279Z,28.80
2018-02-18T01:23:19.026Z,28.90
2018-02-18T01:25:50.483Z,28.60
2018-02-18T01:28:21.277Z,28.70
2018-02-18T01:30:52.951Z,28.70
2018-02-18T01:33:23.855Z,28.70
2018-02-18T01:35:55.611Z,29.00
2018-02-18T01:38:27.364Z,28.90
2018-02-18T01:40:58.211Z,29.00
2018-02-18T01:43:30.294Z,29.10
2018-02-18T01:46:01.142Z,29.10
2018-02-18T01:48:31.634Z,29.10
2018-02-18T01:51:03.255Z,29.00
2018-02-18T01:53:34.238Z,29.00
2018-02-18T01:56:05.691Z,29.10
2018-02-18T01:58:37.414Z,29.50
2018-02-18T02:01:08.145Z,29.50
2018-02-18T02:03:38.898Z,29.90
2018-02-18T02:06:10.454Z,30.00
2018-02-18T02:08:42.079Z,29.60
2018-02-18T02:11:13.103Z,29.60
2018-02-18T02:13:43.858Z,29.90
2018-02-18T02:16:14.424Z,29.90
2018-02-18T02:18:46.060Z,30.10
2018-02-18T02:21:16.918Z,30.00
2018-02-18T02:23:48.809Z,29.90
2018-02-18T02:26:19.589Z,29.80
2018-02-18T02:28:50.326Z,29.70
2018-02-18T02:31:21.139Z,30.30
2018-02-18T02:33:52.198Z,30.20
2018-02-18T02:36:22.992Z,29.80
2018-02-18T02:38:54.068Z,30.60
2018-02-18T02:41:24.923Z,30.60
2018-02-18T02:43:55.620Z,30.10
2018-02-18T02:46:26.392Z,30.10
2018-02-18T02:48:57.111Z,30.00
2018-02-18T02:51:27.823Z,30.90
2018-02-18T02:53:58.794Z,30.90
2018-02-18T02:56:30.458Z,31.20
2018-02-18T02:59:02.106Z,31.30
2018-02-18T03:01:32.988Z,31.30
2018-02-18T03:04:03.902Z,31.20
2018-02-18T03:06:35.474Z,31.10
2018-02-18T03:09:06.538Z,31.00
2018-02-18T03:11:37.330Z,31.10
2018-02-18T03:14:08.922Z,30.60
2018-02-18T03:16:39.802Z,30.60
2018-02-18T03:19:10.683Z,30.50
2018-02-18T03:21:42.310Z,30.40
2018-02-18T03:24:13.819Z,30.40
2018-02-18T03:26:44.470Z,30.40
2018-02-18T03:29:14.977Z,30.70
2018-02-18T03:31:46.791Z,30.70
2018-02-18T03:34:18.328Z,30.50
2018-02-18T03:36:49.734Z,30.40
2018-02-18T03:39:20.474Z,30.40
2018-02-18T03:41:51.348Z,30.70
2018-02-18T03:44:22.909Z,31.00
2018-02-18T03:46:55.057Z,30.90
2018-02-18T03:49:25.955Z,30.90
2018-02-18T03:51:57.029Z,30.80
2018-02-18T03:54:27.918Z,30.80
2018-02-18T03:56:58.725Z,30.70
2018-02-18T03:59:30.383Z,31.00
2018-02-18T04:02:02.020Z,30.90
2018-02-18T04:04:32.707Z,30.90
2018-02-18T04:07:03.504Z,31.10
2018-02-18T04:09:36.398Z,31.10
2018-02-18T04:12:07.918Z,31.00
2018-02-18T04:14:38.761Z,30.90
2018-02-18T04:17:10.163Z,31.00
2018-02-18T04:19:41.787Z,30.90
2018-02-18T04:22:13.441Z,31.20
2018-02-18T04:24:44.992Z,31.10
2018-02-18T04:27:16.748Z,31.10
2018-02-18T04:29:48.383Z,31.30
2018-02-18T04:32:19.157Z,31.20
2018-02-18T04:34:50.439Z,31.10
2018-02-18T04:37:21.227Z,31.30
2018-02-18T04:39:52.866Z,31.80
2018-02-18T04:42:24.530Z,31.80
2018-02-18T04:44:56.210Z,31.50
2018-02-18T04:47:26.734Z,31.50
2018-02-18T04:49:57.439Z,31.30
2018-02-18T04:52:28.166Z,31.10
2018-02-18T04:54:59.941Z,31.40
2018-02-18T04:57:31.698Z,31.50
2018-02-18T05:00:03.431Z,31.60
2018-02-18T05:02:34.393Z,31.60
2018-02-18T05:05:05.844Z,31.90
2018-02-18T05:07:37.588Z,32.30
2018-02-18T05:10:08.533Z,32.30
2018-02-18T05:12:39.942Z,32.30
2018-02-18T05:15:10.642Z,32.30
2018-02-18T05:17:41.545Z,32.40
2018-02-18T05:20:12.241Z,32.40
2018-02-18T05:22:43.042Z,32.50
2018-02-18T05:25:13.879Z,32.40
2018-02-18T05:27:44.812Z,32.60
2018-02-18T05:30:16.511Z,32.50
2018-02-18T05:32:48.091Z,32.50
2018-02-18T05:35:18.876Z,32.30
2018-02-18T05:37:49.610Z,32.60
2018-02-18T05:40:20.286Z,32.60
2018-02-18T05:42:50.949Z,32.80
2018-02-18T05:45:22.610Z,32.90
2018-02-18T05:47:54.141Z,32.50
2018-02-18T05:50:24.808Z,32.40
2018-02-18T05:52:55.984Z,32.10
2018-02-18T05:55:26.974Z,32.40
2018-02-18T05:57:58.555Z,32.70
2018-02-18T06:00:29.293Z,32.70
2018-02-18T06:03:00.283Z,32.60
2018-02-18T06:05:31.018Z,32.80
2018-02-18T06:08:02.140Z,32.80
2018-02-18T06:10:33.052Z,33.00
2018-02-18T06:13:03.946Z,33.10
2018-02-18T06:15:35.645Z,33.30
2018-02-18T06:18:06.405Z,33.20
2018-02-18T06:20:37.176Z,33.30
2018-02-18T06:23:08.709Z,33.40
2018-02-18T06:25:39.507Z,33.40
2018-02-18T06:28:10.090Z,33.50
2018-02-18T06:30:42.111Z,33.00
2018-02-18T06:33:13.092Z,32.90
2018-02-18T06:35:44.734Z,33.20
2018-02-18T06:38:15.438Z,33.20
2018-02-18T06:40:47.117Z,33.00
2018-02-18T06:43:18.225Z,33.00
2018-02-18T06:45:49.418Z,33.30
2018-02-18T06:48:20.351Z,33.10
2018-02-18T06:50:51.819Z,33.20
2018-02-18T06:53:23.238Z,33.30
2018-02-18T06:55:54.005Z,33.30
2018-02-18T06:58:25.611Z,33.20
2018-02-18T07:00:56.290Z,33.10
2018-02-18T07:03:28.560Z,33.10
2018-02-18T07:06:00.263Z,33.00
2018-02-18T07:08:31.054Z,33.00
2018-02-18T07:11:02.434Z,33.30
2018-02-18T07:13:33.467Z,33.30
2018-02-18T07:16:04.286Z,33.20
2018-02-18T07:18:35.882Z,33.10
2018-02-18T07:21:06.778Z,33.00
2018-02-18T07:23:38.283Z,33.40
2018-02-18T07:26:09.000Z,33.30
2018-02-18T07:28:39.927Z,33.30
2018-02-18T07:31:10.619Z,33.20
2018-02-18T07:33:42.207Z,33.50
2018-02-18T07:36:13.198Z,33.50
2018-02-18T07:38:43.884Z,33.50
2018-02-18T07:41:14.862Z,33.70
2018-02-18T07:43:45.607Z,33.50
2018-02-18T07:46:17.363Z,33.60
2018-02-18T07:48:48.330Z,33.60
2018-02-18T07:51:20.075Z,33.50
2018-02-18T07:53:51.557Z,33.50
2018-02-18T07:56:22.489Z,33.50
2018-02-18T07:58:54.330Z,33.80
2018-02-18T08:01:25.164Z,34.00
2018-02-18T08:03:56.821Z,33.80
2018-02-18T08:06:27.870Z,33.80
2018-02-18T08:08:59.457Z,33.80
2018-02-18T08:11:30.900Z,33.80
2018-02-18T08:14:01.778Z,33.70
2018-02-18T08:16:32.513Z,33.70
2018-02-18T08:19:03.038Z,33.70
2018-02-18T08:21:33.863Z,33.80
2018-02-18T08:24:04.526Z,33.90
2018-02-18T08:26:35.411Z,33.80
2018-02-18T08:29:06.163Z,33.90
2018-02-18T08:31:37.933Z,34.00
2018-02-18T08:34:08.768Z,33.90
2018-02-18T08:36:40.083Z,33.90
2018-02-18T08:39:11.292Z,33.80
2018-02-18T08:41:43.126Z,33.70
2018-02-18T08:44:13.850Z,33.60
2018-02-18T08:46:44.572Z,33.80
2018-02-18T08:49:15.313Z,33.70
2018-02-18T08:51:46.071Z,33.80
2018-02-18T08:54:16.678Z,33.80
2018-02-18T08:56:47.561Z,33.80
2018-02-18T08:59:19.501Z,33.70
2018-02-18T09:01:50.212Z,33.70
2018-02-18T09:04:21.073Z,33.50
2018-02-18T09:06:51.944Z,33.40
2018-02-18T09:09:23.116Z,33.40
2018-02-18T09:11:54.400Z,33.40
2018-02-18T09:14:25.312Z,33.40
2018-02-18T09:16:56.103Z,33.50
2018-02-18T09:19:27.166Z,33.40
2018-02-18T09:21:57.958Z,33.50
2018-02-18T09:24:29.766Z,33.40
2018-02-18T09:27:00.740Z,33.40
2018-02-18T09:29:32.420Z,33.40
2018-02-18T09:32:04.019Z,33.50
2018-02-18T09:34:34.951Z,33.50
2018-02-18T09:37:05.791Z,33.50
2018-02-18T09:39:36.683Z,33.80
2018-02-18T09:42:08.164Z,33.70
2018-02-18T09:44:39.165Z,33.70
2018-02-18T09:47:10.805Z,33.70
2018-02-18T09:49:41.404Z,33.70
2018-02-18T09:52:12.077Z,33.60
2018-02-18T09:54:42.898Z,33.70
2018-02-18T09:57:13.561Z,33.70
2018-02-18T09:59:45.160Z,33.70
2018-02-18T10:02:16.148Z,33.60
2018-02-18T10:04:47.926Z,33.50
2018-02-18T10:07:18.743Z,33.50
2018-02-18T10:09:51.408Z,33.40
2018-02-18T10:15:04.289Z,33.40
2018-02-18T10:17:41.358Z,33.30
2018-02-18T10:20:12.983Z,33.30
2018-02-18T10:22:44.831Z,33.20
2018-02-18T10:25:15.564Z,33.20
2018-02-18T10:27:46.506Z,33.10
2018-02-18T10:30:17.217Z,33.00
2018-02-18T10:32:48.391Z,32.90
2018-02-18T10:35:19.140Z,32.90
2018-02-18T10:37:50.720Z,32.80
2018-02-18T10:40:21.999Z,32.80
2018-02-18T10:42:53.247Z,32.80
2018-02-18T10:45:24.006Z,32.80
2018-02-18T10:47:54.586Z,32.80
2018-02-18T10:50:25.361Z,32.70
2018-02-18T10:52:55.868Z,32.70
2018-02-18T10:55:26.266Z,32.70
2018-02-18T10:57:56.729Z,32.60
2018-02-18T11:00:27.199Z,32.60
2018-02-18T11:02:58.816Z,32.50
2018-02-18T11:05:29.326Z,32.50
2018-02-18T11:08:00.086Z,32.60
2018-02-18T11:10:31.446Z,32.50
2018-02-18T11:13:02.199Z,32.50
2018-02-18T11:15:33.579Z,32.40
2018-02-18T11:18:04.629Z,32.40
2018-02-18T11:20:35.731Z,32.40
2018-02-18T11:23:07.450Z,32.40
2018-02-18T11:25:38.103Z,32.40
2018-02-18T11:28:09.735Z,32.40
2018-02-18T11:30:40.410Z,32.30
2018-02-18T11:33:12.071Z,32.40
2018-02-18T11:35:43.761Z,32.30
2018-02-18T11:38:15.045Z,32.30
2018-02-18T11:40:45.962Z,32.30
2018-02-18T11:43:16.945Z,32.30
2018-02-18T11:45:48.522Z,32.30
2018-02-18T11:48:19.448Z,32.30
2018-02-18T11:50:50.105Z,32.30
2018-02-18T11:53:21.063Z,32.30
2018-02-18T11:55:52.030Z,32.20
2018-02-18T11:58:22.861Z,32.20
2018-02-18T12:00:53.848Z,32.10
2018-02-18T12:03:26.094Z,32.10
2018-02-18T12:05:57.672Z,32.00
2018-02-18T12:08:29.196Z,31.90
2018-02-18T12:11:00.373Z,31.90
2018-02-18T12:13:30.826Z,31.90
2018-02-18T12:16:01.464Z,31.90
2018-02-18T12:18:31.913Z,31.90
2018-02-18T12:21:02.902Z,31.90
2018-02-18T12:23:33.375Z,31.80
2018-02-18T12:26:04.251Z,31.70
2018-02-18T12:28:35.012Z,31.60
2018-02-18T12:31:05.858Z,31.60
2018-02-18T12:33:36.687Z,31.60
2018-02-18T12:36:07.607Z,31.70
2018-02-18T12:38:38.432Z,31.60
2018-02-18T12:41:09.267Z,31.40
2018-02-18T12:43:39.985Z,31.30
2018-02-18T12:46:11.422Z,31.10
2018-02-18T12:48:43.225Z,31.00
2018-02-18T12:51:14.083Z,31.00
2018-02-18T12:53:44.822Z,31.00
2018-02-18T12:56:15.659Z,31.10
2018-02-18T12:58:46.179Z,31.20
2018-02-18T13:01:17.019Z,31.10
2018-02-18T13:03:47.967Z,31.20
2018-02-18T13:06:18.600Z,31.10
2018-02-18T13:08:49.435Z,31.10
2018-02-18T13:11:20.050Z,31.00
2018-02-18T13:13:51.648Z,31.00
2018-02-18T13:16:23.271Z,31.00
2018-02-18T13:18:54.090Z,30.90
2018-02-18T13:21:24.919Z,30.90
2018-02-18T13:23:55.884Z,30.90
2018-02-18T13:26:26.691Z,30.90
2018-02-18T13:28:57.569Z,30.80
2018-02-18T13:31:28.459Z,30.70
2018-02-18T13:33:59.242Z,30.60
2018-02-18T13:36:30.067Z,30.40
2018-02-18T13:39:00.816Z,30.30
2018-02-18T13:41:32.585Z,30.30
2018-02-18T13:44:04.327Z,30.20
2018-02-18T13:46:35.233Z,30.20
2018-02-18T13:49:06.233Z,30.20
2018-02-18T13:51:37.199Z,30.20
2018-02-18T13:54:07.934Z,30.20
2018-02-18T13:56:38.861Z,30.40
2018-02-18T13:59:10.363Z,30.50
2018-02-18T14:01:41.240Z,30.80
2018-02-18T14:04:12.967Z,30.90
2018-02-18T14:06:43.882Z,30.90
2018-02-18T14:09:15.522Z,30.90
2018-02-18T14:11:46.699Z,30.90
2018-02-18T14:14:18.462Z,30.90
2018-02-18T14:16:49.401Z,30.90
2018-02-18T14:19:21.049Z,30.90
2018-02-18T14:21:52.014Z,30.90
2018-02-18T14:24:23.451Z,30.90
2018-02-18T14:26:55.037Z,30.90
2018-02-18T14:29:25.620Z,30.90
2018-02-18T14:31:56.553Z,30.80
2018-02-18T14:34:27.264Z,30.80
2018-02-18T14:36:58.262Z,30.80
2018-02-18T14:39:29.712Z,30.70
2018-02-18T14:42:11.820Z,30.80
2018-02-18T14:44:54.043Z,30.70
2018-02-18T14:47:35.684Z,30.70
2018-02-18T14:50:17.178Z,30.70
2018-02-18T14:53:00.094Z,30.70
2018-02-18T14:58:37.196Z,30.60
2018-02-18T15:01:07.926Z,30.60
2018-02-18T15:03:38.654Z,30.60
2018-02-18T15:06:09.379Z,30.40
2018-02-18T15:08:40.225Z,30.40
2018-02-18T15:11:11.910Z,30.40
2018-02-18T15:13:43.557Z,30.40
2018-02-18T15:16:15.175Z,30.40
2018-02-18T15:18:46.020Z,30.40
2018-02-18T15:21:17.497Z,30.40
2018-02-18T15:23:49.262Z,30.30
2018-02-18T15:26:20.774Z,30.30
2018-02-18T15:28:51.773Z,30.30
2018-02-18T15:31:22.841Z,30.30
2018-02-18T15:33:54.009Z,30.20
2018-02-18T15:36:25.077Z,30.20
2018-02-18T15:38:56.777Z,30.10
2018-02-18T15:41:27.679Z,30.10
2018-02-18T15:43:59.469Z,30.10
2018-02-18T15:46:30.635Z,30.10
2018-02-18T15:49:01.903Z,30.10
2018-02-18T15:51:33.169Z,30.10
2018-02-18T15:54:04.981Z,30.00
2018-02-18T15:56:35.977Z,30.00
2018-02-18T15:59:07.229Z,30.00
2018-02-18T16:01:38.061Z,30.10
2018-02-18T16:04:08.624Z,30.00
2018-02-18T16:06:39.834Z,29.90
2018-02-18T16:09:10.641Z,29.80
2018-02-18T16:11:42.932Z,29.50
2018-02-18T16:14:14.588Z,29.60
2018-02-18T16:16:46.458Z,29.60
2018-02-18T16:19:17.388Z,29.60
2018-02-18T16:21:48.915Z,29.40
2018-02-18T16:24:19.755Z,29.40
2018-02-18T16:26:50.694Z,29.30
2018-02-18T16:29:21.523Z,29.40
2018-02-18T16:31:52.857Z,29.50
2018-02-18T16:34:23.853Z,29.40
2018-02-18T16:36:55.160Z,29.40
2018-02-18T16:39:26.341Z,29.30
2018-02-18T16:41:57.207Z,29.30
2018-02-18T16:44:27.970Z,29.20
2018-02-18T16:47:00.676Z,28.90
2018-02-18T16:49:32.406Z,29.00
2018-02-18T16:52:02.859Z,29.00
2018-02-18T16:54:34.771Z,28.80
2018-02-18T16:57:05.841Z,28.90
2018-02-18T16:59:36.688Z,28.90
2018-02-18T17:02:08.197Z,28.90
2018-02-18T17:04:39.167Z,28.80
2018-02-18T17:07:11.571Z,28.70
2018-02-18T17:09:43.291Z,28.80
2018-02-18T17:12:13.963Z,28.70
2018-02-18T17:14:44.759Z,28.70
2018-02-18T17:17:15.664Z,28.70
2018-02-18T17:19:46.479Z,28.70
2018-02-18T17:22:16.895Z,28.60
2018-02-18T17:24:48.115Z,28.50
2018-02-18T17:27:18.526Z,28.50
2018-02-18T17:29:48.981Z,28.40
2018-02-18T17:32:20.233Z,28.50
2018-02-18T17:34:51.890Z,28.50
2018-02-18T17:37:23.682Z,28.60
2018-02-18T17:39:54.562Z,28.50
2018-02-18T17:42:25.359Z,28.50
2018-02-18T17:44:56.133Z,28.60
2018-02-18T17:47:26.792Z,28.60
2018-02-18T17:49:58.252Z,28.40
2018-02-18T17:52:29.164Z,28.40
2018-02-18T17:55:00.018Z,28.20
2018-02-18T17:57:31.376Z,28.30
2018-02-18T18:00:01.998Z,28.30
2018-02-18T18:02:33.619Z,28.40
2018-02-18T18:05:04.552Z,28.40
2018-02-18T18:07:35.677Z,28.40
2018-02-18T18:10:06.275Z,28.40
2018-02-18T18:12:37.242Z,28.40
2018-02-18T18:15:07.975Z,28.40
2018-02-18T18:17:38.874Z,28.30
2018-02-18T18:20:10.510Z,28.00
2018-02-18T18:22:41.031Z,27.90
2018-02-18T18:25:11.769Z,27.80
2018-02-18T18:27:42.803Z,27.60
2018-02-18T18:30:13.461Z,27.60
2018-02-18T18:32:45.082Z,27.60
2018-02-18T18:35:15.910Z,27.60
2018-02-18T18:37:46.415Z,27.60
2018-02-18T18:40:17.520Z,27.50
2018-02-18T18:42:48.534Z,27.50
2018-02-18T18:45:19.371Z,27.50
2018-02-18T18:47:50.530Z,27.50
2018-02-18T18:50:22.050Z,27.50
2018-02-18T18:52:52.955Z,27.50
2018-02-18T18:55:23.844Z,27.60
2018-02-18T18:57:54.679Z,27.60
2018-02-18T19:00:25.292Z,27.60
2018-02-18T19:02:56.047Z,27.70
2018-02-18T19:05:26.742Z,27.70
2018-02-18T19:07:57.925Z,27.70
2018-02-18T19:10:29.542Z,27.80
2018-02-18T19:13:00.816Z,27.70
2018-02-18T19:15:31.623Z,27.80
2018-02-18T19:18:02.562Z,27.80
2018-02-18T19:20:33.356Z,27.70
2018-02-18T19:23:04.986Z,27.60
2018-02-18T19:25:35.755Z,27.60
2018-02-18T19:28:07.725Z,27.60
2018-02-18T19:30:38.363Z,27.50
2018-02-18T19:33:09.058Z,27.50
2018-02-18T19:35:41.387Z,27.40
2018-02-18T19:38:12.231Z,27.40
2018-02-18T19:40:43.034Z,27.50
2018-02-18T19:43:13.962Z,27.60
2018-02-18T19:45:45.544Z,27.30
2018-02-18T19:48:16.258Z,27.30
2018-02-18T19:50:47.182Z,27.40
2018-02-18T19:53:18.582Z,27.20
2018-02-18T19:55:49.453Z,27.20
2018-02-18T19:58:20.428Z,27.30
2018-02-18T20:00:51.386Z,27.40
2018-02-18T20:03:22.365Z,27.40
2018-02-18T20:05:53.320Z,27.40
2018-02-18T20:08:24.950Z,27.30
2018-02-18T20:10:55.610Z,27.30
2018-02-18T20:13:27.107Z,27.30
2018-02-18T20:15:57.878Z,27.30
2018-02-18T20:18:28.670Z,27.40
2018-02-18T20:20:59.557Z,27.40
2018-02-18T20:23:30.454Z,27.30
2018-02-18T20:26:01.330Z,27.30
2018-02-18T20:28:32.025Z,27.40
2018-02-18T20:31:02.875Z,27.50
2018-02-18T20:33:33.720Z,27.30
2018-02-18T20:36:05.696Z,27.20
2018-02-18T20:38:37.918Z,27.20
2018-02-18T20:41:08.880Z,27.20
2018-02-18T20:43:39.671Z,27.30
2018-02-18T20:46:11.163Z,27.30
2018-02-18T20:48:41.933Z,27.30
2018-02-18T20:51:12.952Z,27.30
2018-02-18T20:53:43.942Z,27.20
2018-02-18T20:56:14.856Z,27.20
2018-02-18T20:58:46.266Z,26.90
2018-02-18T21:01:17.075Z,26.90
2018-02-18T21:03:48.073Z,27.00
2018-02-18T21:06:19.840Z,27.10
2018-02-18T21:08:51.338Z,27.20
2018-02-18T21:11:22.446Z,27.10
2018-02-18T21:13:54.119Z,27.20
2018-02-18T21:16:24.915Z,27.20
2018-02-18T21:18:55.865Z,27.20
2018-02-18T21:21:27.402Z,27.20
2018-02-18T21:23:57.939Z,27.20
2018-02-18T21:26:30.394Z,27.20
2018-02-18T21:29:01.002Z,27.20
2018-02-18T21:31:31.891Z,27.10
2018-02-18T21:34:04.303Z,27.10
2018-02-18T21:36:36.241Z,27.00
2018-02-18T21:39:08.420Z,27.10
2018-02-18T21:41:39.474Z,27.10
2018-02-18T21:44:10.451Z,27.00
2018-02-18T21:46:41.445Z,27.10
2018-02-18T21:49:12.177Z,27.10
2018-02-18T21:51:43.087Z,26.90
2018-02-18T21:54:14.812Z,26.90
2018-02-18T21:56:45.670Z,26.90
2018-02-18T21:59:16.498Z,26.90
2018-02-18T22:01:47.201Z,26.80
2018-02-18T22:04:18.058Z,26.60
2018-02-18T22:06:48.827Z,26.50
2018-02-18T22:09:19.802Z,26.60
2018-02-18T22:11:51.384Z,26.60
2018-02-18T22:14:22.106Z,26.60
2018-02-18T22:16:52.962Z,26.70
2018-02-18T22:19:23.763Z,26.80
2018-02-18T22:21:54.586Z,26.80
2018-02-18T22:24:25.360Z,26.80
2018-02-18T22:26:56.155Z,26.80
2018-02-18T22:29:27.083Z,26.80
2018-02-18T22:31:57.941Z,26.70
2018-02-18T22:34:28.785Z,26.50
2018-02-18T22:36:59.754Z,26.40
2018-02-18T22:39:31.420Z,26.50
2018-02-18T22:42:02.351Z,26.50
2018-02-18T22:44:32.976Z,26.60
2018-02-18T22:47:03.839Z,26.50
2018-02-18T22:49:35.434Z,26.30
2018-02-18T22:52:06.464Z,26.20
2018-02-18T22:54:36.930Z,26.20
2018-02-18T22:57:07.792Z,26.30
2018-02-18T22:59:39.442Z,26.50
2018-02-18T23:02:10.443Z,26.50
2018-02-18T23:04:41.537Z,26.50
2018-02-18T23:07:13.178Z,26.20
2018-02-18T23:09:43.660Z,26.20
2018-02-18T23:12:14.505Z,26.20
2018-02-18T23:14:45.224Z,26.30
2018-02-18T23:17:16.116Z,26.30
2018-02-18T23:19:46.892Z,26.40
2018-02-18T23:22:17.986Z,26.50
2018-02-18T23:24:48.975Z,26.50
2018-02-18T23:27:19.832Z,26.40
2018-02-18T23:29:51.437Z,26.30
2018-02-18T23:32:24.247Z,26.20
2018-02-18T23:34:55.141Z,26.10
2018-02-18T23:37:26.076Z,26.30
2018-02-18T23:39:58.253Z,26.40
2018-02-18T23:42:29.791Z,26.30
2018-02-18T23:45:00.631Z,26.30
2018-02-18T23:47:31.439Z,26.20
2018-02-18T23:50:02.415Z,26.30
2018-02-18T23:52:33.342Z,26.40
2018-02-18T23:55:04.176Z,26.50
2018-02-18T23:57:36.186Z,26.40
